createdAt,value
2022-12-07T00:01:28.989Z,58.40
2022-12-07T00:04:01.864Z,53.13
2022-12-07T00:06:28.775Z,56.78
2022-12-07T00:08:55.967Z,42.13
2022-12-07T00:11:24.118Z,56.00
2022-12-07T00:13:56.843Z,53.88
2022-12-07T00:16:27.378Z,52.28
2022-12-07T00:18:54.870Z,38.28
2022-12-07T00:21:25.254Z,27.08
2022-12-07T00:23:53.318Z,32.90
2022-12-07T00:26:26.634Z,37.70
2022-12-07T00:28:56.430Z,51.33
2022-12-07T00:31:26.834Z,58.17
2022-12-07T00:33:54.101Z,56.13
2022-12-07T00:36:27.020Z,58.03
2022-12-07T00:38:55.525Z,85.30
2022-12-07T00:41:25.297Z,49.47
2022-12-07T00:43:53.403Z,60.15
2022-12-07T00:46:21.320Z,49.00
2022-12-07T00:48:49.873Z,96.75
2022-12-07T00:51:19.297Z,74.55
2022-12-07T00:53:46.589Z,122.05
2022-12-07T00:56:18.834Z,82.68
2022-12-07T00:58:51.623Z,67.20
2022-12-07T01:01:18.725Z,79.97
2022-12-07T01:03:45.898Z,75.30
2022-12-07T01:06:17.210Z,72.95
2022-12-07T01:08:44.297Z,64.50
2022-12-07T01:11:15.664Z,41.78
2022-12-07T01:13:43.555Z,37.67
2022-12-07T01:16:14.247Z,46.35
2022-12-07T01:18:42.365Z,19.58
2022-12-07T01:21:16.009Z,34.55
2022-12-07T01:23:43.187Z,27.48
2022-12-07T01:26:15.745Z,16.67
2022-12-07T01:28:42.778Z,21.58
2022-12-07T01:31:16.381Z,22.90
2022-12-07T01:33:48.724Z,12.23
2022-12-07T01:36:17.782Z,16.45
2022-12-07T01:38:46.335Z,14.57
2022-12-07T01:41:16.771Z,10.85
2022-12-07T01:44:27.051Z,12.27
2022-12-07T01:47:00.547Z,14.93
2022-12-07T01:49:40.059Z,11.38
2022-12-07T01:52:16.033Z,9.38
2022-12-07T01:54:45.860Z,9.05
2022-12-07T01:57:15.928Z,8.68
2022-12-07T01:59:44.671Z,7.85
2022-12-07T02:02:18.990Z,8.43
2022-12-07T02:04:47.155Z,8.55
2022-12-07T02:07:16.134Z,10.05
2022-12-07T02:09:43.303Z,9.25
2022-12-07T02:12:10.722Z,9.38
2022-12-07T02:14:38.176Z,11.82
2022-12-07T02:17:43.192Z,10.45
2022-12-07T02:20:29.070Z,10.43
2022-12-07T02:23:22.312Z,11.07
2022-12-07T02:25:52.153Z,10.57
2022-12-07T02:28:46.927Z,11.57
2022-12-07T02:31:20.456Z,9.35
2022-12-07T02:34:07.644Z,8.20
2022-12-07T02:36:43.675Z,8.10
2022-12-07T02:39:29.834Z,10.52
2022-12-07T02:42:02.327Z,12.88
2022-12-07T02:44:31.966Z,12.25
2022-12-07T02:47:04.321Z,15.35
2022-12-07T02:49:32.863Z,12.20
2022-12-07T02:52:00.148Z,16.80
2022-12-07T02:54:27.052Z,13.80
2022-12-07T02:56:57.136Z,14.93
2022-12-07T02:59:55.089Z,15.50
2022-12-07T03:02:52.688Z,22.33
2022-12-07T03:05:31.715Z,23.58
2022-12-07T03:08:36.743Z,28.45
2022-12-07T03:11:11.062Z,30.17
2022-12-07T03:13:54.809Z,30.70
2022-12-07T03:16:33.095Z,31.42
2022-12-07T03:19:07.229Z,32.55
2022-12-07T03:21:40.101Z,24.70
2022-12-07T03:24:12.416Z,25.83
2022-12-07T03:26:46.094Z,32.33
2022-12-07T03:29:21.730Z,44.70
2022-12-07T03:31:58.352Z,41.58
2022-12-07T03:34:38.040Z,32.00
2022-12-07T03:37:13.521Z,30.23
2022-12-07T03:39:46.247Z,20.75
2022-12-07T03:42:13.798Z,28.45
2022-12-07T03:44:42.298Z,22.05
2022-12-07T03:47:18.469Z,32.75
2022-12-07T03:49:52.552Z,66.93
2022-12-07T03:52:34.600Z,39.72
2022-12-07T03:55:25.992Z,36.22
2022-12-07T03:57:57.234Z,30.60
2022-12-07T04:02:54.221Z,20.00
2022-12-07T04:05:21.831Z,31.85
2022-12-07T04:07:49.051Z,32.35
2022-12-07T04:10:16.249Z,33.70
2022-12-07T04:12:43.093Z,28.23
2022-12-07T04:15:11.340Z,36.92
2022-12-07T04:17:39.542Z,36.97
2022-12-07T04:20:07.669Z,55.15
2022-12-07T04:22:34.666Z,71.70
2022-12-07T04:25:01.922Z,67.15
2022-12-07T04:27:28.713Z,98.18
2022-12-07T04:29:56.658Z,54.05
2022-12-07T04:32:25.030Z,90.90
2022-12-07T04:34:55.555Z,100.55
2022-12-07T04:37:23.619Z,64.85
2022-12-07T04:39:50.654Z,49.30
2022-12-07T04:42:17.733Z,48.88
2022-12-07T04:44:45.791Z,54.92
2022-12-07T04:47:13.095Z,79.68
2022-12-07T04:49:40.399Z,56.17
2022-12-07T04:52:07.340Z,50.35
2022-12-07T04:54:34.686Z,67.68
2022-12-07T04:57:01.715Z,39.08
2022-12-07T04:59:28.786Z,35.83
2022-12-07T05:01:55.812Z,31.50
2022-12-07T05:04:22.992Z,35.38
2022-12-07T05:06:50.129Z,31.25
2022-12-07T05:09:17.040Z,33.25
2022-12-07T05:11:44.426Z,29.08
2022-12-07T05:14:11.491Z,36.03
2022-12-07T05:16:39.392Z,45.33
2022-12-07T05:19:06.622Z,79.28
2022-12-07T05:21:34.052Z,41.15
2022-12-07T05:24:01.176Z,43.05
2022-12-07T05:26:29.098Z,57.75
2022-12-07T05:28:57.362Z,50.78
2022-12-07T05:31:25.541Z,63.53
2022-12-07T05:33:52.953Z,33.50
2022-12-07T05:36:32.303Z,35.80
2022-12-07T05:39:01.957Z,42.97
2022-12-07T05:41:47.969Z,42.45
2022-12-07T05:44:15.447Z,39.58
2022-12-07T05:46:43.338Z,38.42
2022-12-07T05:49:10.277Z,40.25
2022-12-07T05:51:37.679Z,45.53
2022-12-07T05:54:04.801Z,43.72
2022-12-07T05:56:34.897Z,45.70
2022-12-07T05:59:20.986Z,42.13
2022-12-07T06:01:48.443Z,48.90
2022-12-07T06:04:16.134Z,44.67
2022-12-07T06:06:43.343Z,53.90
2022-12-07T06:09:17.489Z,50.97
2022-12-07T06:12:03.537Z,47.40
2022-12-07T06:14:36.533Z,39.17
2022-12-07T06:17:03.803Z,41.22
2022-12-07T06:19:31.146Z,44.92
2022-12-07T06:21:59.130Z,36.78
2022-12-07T06:24:26.351Z,41.63
2022-12-07T06:26:53.520Z,34.08
2022-12-07T06:29:20.545Z,33.03
2022-12-07T06:31:51.848Z,29.95
2022-12-07T06:34:28.562Z,25.83
2022-12-07T06:36:56.200Z,28.88
2022-12-07T06:39:26.877Z,27.05
2022-12-07T06:41:55.109Z,25.65
2022-12-07T06:44:23.227Z,28.00
2022-12-07T06:46:51.405Z,27.40
2022-12-07T06:49:21.164Z,26.75
2022-12-07T06:51:55.647Z,31.27
2022-12-07T06:54:23.111Z,26.23
2022-12-07T06:56:51.073Z,24.73
2022-12-07T06:59:18.775Z,28.85
2022-12-07T07:01:45.801Z,32.08
2022-12-07T07:04:13.889Z,27.25
2022-12-07T07:06:41.002Z,29.15
2022-12-07T07:09:08.261Z,25.65
2022-12-07T07:11:35.552Z,33.22
2022-12-07T07:14:03.733Z,33.42
2022-12-07T07:16:33.513Z,24.33
2022-12-07T07:19:00.942Z,22.00
2022-12-07T07:21:28.289Z,24.23
2022-12-07T07:23:55.278Z,25.98
2022-12-07T07:26:23.451Z,28.00
2022-12-07T07:28:50.963Z,26.83
2022-12-07T07:31:18.245Z,30.13
2022-12-07T07:33:49.622Z,86.78
2022-12-07T07:36:17.059Z,23.15
2022-12-07T07:38:44.710Z,29.33
2022-12-07T07:41:11.683Z,25.42
2022-12-07T07:44:02.453Z,33.22
2022-12-07T07:46:29.893Z,38.65
2022-12-07T07:48:57.450Z,28.98
2022-12-07T07:51:24.467Z,29.30
2022-12-07T07:53:51.747Z,20.38
2022-12-07T07:56:21.321Z,26.15
2022-12-07T07:58:48.418Z,25.05
2022-12-07T08:01:21.255Z,23.17
2022-12-07T08:08:26.779Z,31.73
2022-12-07T08:10:54.381Z,45.30
2022-12-07T08:13:24.920Z,52.45
2022-12-07T08:15:57.013Z,37.75
2022-12-07T08:18:24.377Z,52.03
2022-12-07T08:20:51.722Z,44.83
2022-12-07T08:23:21.481Z,42.05
2022-12-07T08:25:51.673Z,46.25
2022-12-07T08:28:19.280Z,47.95
2022-12-07T08:30:49.995Z,36.13
2022-12-07T08:33:17.435Z,24.35
2022-12-07T08:35:48.233Z,31.70
2022-12-07T08:38:15.768Z,26.63
2022-12-07T08:40:44.412Z,23.83
2022-12-07T08:43:11.977Z,23.40
2022-12-07T08:45:41.756Z,20.40
2022-12-07T08:48:12.793Z,16.63
2022-12-07T08:50:45.976Z,15.45
2022-12-07T08:53:17.131Z,14.15
2022-12-07T08:55:47.414Z,21.60
2022-12-07T08:58:16.089Z,38.83
2022-12-07T09:00:43.399Z,18.25
2022-12-07T09:03:16.653Z,20.73
2022-12-07T09:05:43.688Z,28.30
2022-12-07T09:08:11.262Z,17.70
2022-12-07T09:10:38.831Z,23.40
2022-12-07T09:13:06.012Z,18.70
2022-12-07T09:15:36.118Z,21.85
2022-12-07T09:18:06.163Z,15.18
2022-12-07T09:20:33.542Z,25.60
2022-12-07T09:23:04.791Z,17.98
2022-12-07T09:25:32.272Z,20.23
2022-12-07T09:27:59.967Z,26.75
2022-12-07T09:30:28.909Z,26.75
2022-12-07T09:32:58.193Z,21.48
2022-12-07T09:35:27.011Z,35.40
2022-12-07T09:37:55.568Z,38.03
2022-12-07T09:40:25.191Z,29.35
2022-12-07T09:42:56.447Z,29.95
2022-12-07T09:45:30.806Z,37.95
2022-12-07T09:48:00.726Z,29.85
2022-12-07T09:50:29.741Z,35.97
2022-12-07T09:53:14.039Z,29.42
2022-12-07T09:55:43.093Z,31.80
2022-12-07T09:58:21.786Z,31.40
2022-12-07T10:00:55.440Z,26.58
2022-12-07T10:03:23.191Z,37.30
2022-12-07T10:05:52.601Z,22.40
2022-12-07T10:08:20.692Z,26.15
2022-12-07T10:10:52.915Z,29.90
2022-12-07T10:13:46.414Z,24.92
2022-12-07T10:16:27.848Z,31.67
2022-12-07T10:18:55.531Z,40.28
2022-12-07T10:21:25.638Z,33.35
2022-12-07T10:24:19.249Z,32.97
2022-12-07T10:26:51.027Z,32.85
2022-12-07T10:29:39.819Z,24.52
2022-12-07T10:32:32.675Z,22.70
2022-12-07T10:35:26.271Z,22.48
2022-12-07T10:37:55.888Z,19.05
2022-12-07T10:40:35.306Z,19.35
2022-12-07T10:43:20.286Z,30.33
2022-12-07T10:46:14.485Z,33.75
2022-12-07T10:49:01.023Z,31.45
2022-12-07T10:51:46.682Z,20.13
2022-12-07T10:54:30.773Z,16.98
2022-12-07T10:57:30.147Z,26.30
2022-12-07T11:00:10.249Z,23.92
2022-12-07T11:02:50.711Z,26.90
2022-12-07T11:05:37.361Z,42.60
2022-12-07T11:08:23.652Z,47.03
2022-12-07T11:11:01.899Z,30.10
2022-12-07T11:13:36.169Z,24.85
2022-12-07T11:16:29.110Z,33.63
2022-12-07T11:19:03.091Z,36.40
2022-12-07T11:21:49.507Z,30.40
2022-12-07T11:24:26.434Z,28.98
2022-12-07T11:26:53.850Z,33.92
2022-12-07T11:29:55.626Z,24.67
2022-12-07T11:32:48.485Z,29.77
2022-12-07T11:35:31.343Z,27.58
2022-12-07T11:38:24.644Z,22.80
2022-12-07T11:41:14.699Z,20.80
2022-12-07T11:43:54.289Z,26.00
2022-12-07T11:46:25.622Z,21.95
2022-12-07T11:49:33.824Z,18.95
2022-12-07T11:52:05.842Z,22.15
2022-12-07T11:57:20.352Z,32.47
2022-12-07T11:59:53.372Z,20.02
2022-12-07T12:02:28.508Z,22.67
2022-12-07T12:05:05.417Z,23.15
2022-12-07T12:10:29.620Z,40.92
2022-12-07T12:19:23.256Z,21.02
2022-12-07T12:21:58.680Z,23.50
2022-12-07T12:24:30.490Z,17.92
2022-12-07T12:27:06.499Z,23.23
2022-12-07T12:29:43.193Z,22.23
2022-12-07T12:32:22.183Z,18.73
2022-12-07T12:34:50.952Z,17.17
2022-12-07T12:37:36.989Z,17.85
2022-12-07T12:40:16.632Z,14.98
2022-12-07T12:42:57.545Z,33.05
2022-12-07T12:45:28.687Z,15.70
2022-12-07T12:48:06.559Z,12.88
2022-12-07T12:50:36.806Z,24.20
2022-12-07T12:53:25.766Z,25.55
2022-12-07T12:56:07.908Z,15.38
2022-12-07T12:58:45.134Z,22.50
2022-12-07T13:01:31.475Z,21.90
2022-12-07T13:04:00.253Z,18.73
2022-12-07T13:06:27.578Z,23.85
2022-12-07T13:09:00.089Z,24.38
2022-12-07T13:11:42.797Z,17.08
2022-12-07T13:14:42.049Z,23.42
2022-12-07T13:17:52.483Z,21.25
2022-12-07T13:20:44.638Z,23.20
2022-12-07T13:25:47.334Z,18.85
2022-12-07T13:28:21.455Z,26.20
2022-12-07T13:31:01.641Z,19.42
2022-12-07T13:33:31.740Z,18.65
2022-12-07T13:36:01.840Z,19.73
2022-12-07T13:38:33.552Z,19.48
2022-12-07T13:41:14.057Z,19.60
2022-12-07T13:43:55.454Z,18.23
2022-12-07T13:46:44.500Z,25.30
2022-12-07T13:49:27.049Z,19.33
2022-12-07T13:51:55.858Z,22.70
2022-12-07T13:54:26.729Z,27.08
2022-12-07T13:56:54.714Z,26.63
2022-12-07T13:59:29.739Z,28.38
2022-12-07T14:01:59.506Z,27.23
2022-12-07T14:04:37.212Z,31.15
2022-12-07T14:07:27.507Z,37.42
2022-12-07T14:10:06.895Z,31.65
2022-12-07T14:15:34.081Z,40.92
2022-12-07T14:20:42.142Z,56.92
2022-12-07T14:23:30.318Z,56.92
2022-12-07T14:26:08.642Z,52.47
2022-12-07T14:28:38.400Z,57.17
2022-12-07T14:31:22.686Z,65.18
2022-12-07T14:33:52.784Z,58.67
2022-12-07T14:36:26.670Z,64.35
2022-12-07T14:38:57.369Z,67.20
2022-12-07T14:41:47.446Z,67.57
2022-12-07T14:44:24.324Z,79.38
2022-12-07T14:49:40.520Z,77.13
2022-12-07T14:55:03.226Z,102.03
2022-12-07T14:57:30.601Z,104.38
2022-12-07T14:59:57.874Z,101.78
2022-12-07T15:02:25.209Z,95.40
2022-12-07T15:04:52.490Z,104.05
2022-12-07T15:07:22.103Z,97.88
2022-12-07T15:09:50.205Z,86.60
2022-12-07T15:12:17.419Z,90.95
2022-12-07T15:14:44.491Z,87.32
2022-12-07T15:17:23.398Z,86.43
2022-12-07T15:19:55.753Z,95.57
2022-12-07T15:22:22.772Z,106.25
2022-12-07T15:24:50.049Z,110.35
2022-12-07T15:27:17.263Z,132.82
2022-12-07T15:29:45.420Z,115.13
2022-12-07T15:32:13.093Z,150.25
2022-12-07T15:34:40.962Z,149.43
2022-12-07T15:37:09.061Z,145.65
2022-12-07T15:39:38.311Z,143.35
2022-12-07T15:42:08.310Z,146.23
2022-12-07T15:44:54.038Z,117.15
2022-12-07T15:47:21.736Z,137.70
2022-12-07T15:49:48.806Z,107.30
2022-12-07T15:52:19.460Z,137.90
2022-12-07T15:54:46.532Z,201.52
2022-12-07T15:57:19.510Z,183.05
2022-12-07T15:59:49.220Z,197.55
2022-12-07T16:02:16.677Z,187.02
2022-12-07T16:04:44.026Z,182.52
2022-12-07T16:07:12.845Z,200.63
2022-12-07T16:09:43.012Z,211.07
2022-12-07T16:12:11.234Z,244.25
2022-12-07T16:14:39.554Z,224.98
2022-12-07T16:17:07.581Z,194.35
2022-12-07T16:19:35.427Z,265.98
2022-12-07T16:22:02.937Z,255.13
2022-12-07T16:24:29.954Z,184.57
2022-12-07T16:26:57.390Z,184.50
2022-12-07T16:29:43.485Z,182.82
2022-12-07T16:32:11.230Z,177.15
2022-12-07T16:34:38.357Z,173.20
2022-12-07T16:37:06.174Z,164.27
2022-12-07T16:39:35.512Z,171.30
2022-12-07T16:42:06.887Z,163.35
2022-12-07T16:44:34.237Z,138.02
2022-12-07T16:47:02.302Z,139.45
2022-12-07T16:49:30.199Z,206.02
2022-12-07T16:54:44.474Z,275.90
2022-12-07T16:57:14.273Z,276.40
2022-12-07T16:59:46.946Z,291.05
2022-12-07T17:02:14.103Z,234.98
2022-12-07T17:04:43.468Z,231.60
2022-12-07T17:07:11.275Z,264.02
2022-12-07T17:09:38.579Z,124.30
2022-12-07T17:12:17.345Z,90.47
2022-12-07T17:15:04.648Z,80.13
2022-12-07T17:17:32.654Z,87.78
2022-12-07T17:20:03.623Z,97.07
2022-12-07T17:22:31.542Z,93.47
2022-12-07T17:25:04.397Z,111.13
2022-12-07T17:27:34.472Z,110.25
2022-12-07T17:30:02.506Z,127.78
2022-12-07T17:32:29.653Z,127.78
2022-12-07T17:34:57.560Z,145.27
2022-12-07T17:37:28.088Z,147.10
2022-12-07T17:39:58.511Z,121.82
2022-12-07T17:42:40.101Z,176.23
2022-12-07T17:45:11.009Z,194.50
2022-12-07T17:47:41.115Z,186.68
2022-12-07T17:50:09.420Z,194.00
2022-12-07T17:53:01.926Z,206.50
2022-12-07T17:58:38.056Z,221.00
2022-12-07T18:01:11.109Z,224.23
2022-12-07T18:03:45.153Z,221.63
2022-12-07T18:06:12.673Z,234.52
2022-12-07T18:08:40.136Z,237.82
2022-12-07T18:11:07.798Z,273.60
2022-12-07T18:13:38.679Z,283.60
2022-12-07T18:16:18.905Z,270.60
2022-12-07T18:19:00.248Z,288.80
2022-12-07T18:21:29.139Z,250.90
2022-12-07T18:23:59.257Z,245.40
2022-12-07T18:26:27.412Z,140.45
2022-12-07T18:28:54.892Z,177.32
2022-12-07T18:31:22.053Z,203.82
2022-12-07T18:33:49.422Z,215.52
2022-12-07T18:36:18.453Z,219.18
2022-12-07T18:38:48.720Z,178.77
2022-12-07T18:41:16.722Z,164.90
2022-12-07T18:43:44.784Z,170.48
2022-12-07T18:46:16.159Z,205.98
2022-12-07T18:48:44.016Z,200.27
2022-12-07T18:51:13.008Z,183.35
2022-12-07T18:53:43.363Z,213.63
2022-12-07T18:56:15.431Z,199.35
2022-12-07T18:59:04.070Z,159.18
2022-12-07T19:01:35.055Z,151.90
2022-12-07T19:06:29.388Z,87.38
2022-12-07T19:08:57.326Z,140.98
2022-12-07T19:11:46.189Z,138.05
2022-12-07T19:14:14.620Z,171.88
2022-12-07T19:16:43.933Z,176.85
2022-12-07T19:19:13.408Z,155.23
2022-12-07T19:21:40.955Z,138.60
2022-12-07T19:24:08.795Z,125.45
2022-12-07T19:26:36.020Z,145.63
2022-12-07T19:29:03.153Z,137.35
2022-12-07T19:31:30.391Z,125.03
2022-12-07T19:33:57.548Z,105.70
2022-12-07T19:36:24.706Z,109.15
2022-12-07T19:38:53.499Z,105.47
2022-12-07T19:41:38.067Z,97.25
2022-12-07T19:44:16.969Z,94.78
2022-12-07T19:46:47.327Z,73.78
2022-12-07T19:49:17.981Z,81.03
2022-12-07T19:51:47.373Z,63.58
2022-12-07T19:54:16.857Z,57.25
2022-12-07T19:56:45.811Z,57.60
2022-12-07T19:59:15.145Z,89.03
2022-12-07T20:01:43.458Z,105.45
2022-12-07T20:04:14.092Z,87.32
2022-12-07T20:06:41.439Z,84.13
2022-12-07T20:09:08.946Z,101.20
2022-12-07T20:11:55.559Z,113.70
2022-12-07T20:14:23.277Z,109.97
2022-12-07T20:16:50.667Z,117.47
2022-12-07T20:19:18.388Z,112.43
2022-12-07T20:21:46.352Z,115.63
2022-12-07T20:24:21.830Z,122.60
2022-12-07T20:26:50.885Z,127.85
2022-12-07T20:29:21.090Z,124.60
2022-12-07T20:31:50.302Z,135.95
2022-12-07T20:34:18.127Z,135.45
2022-12-07T20:36:45.327Z,128.57
2022-12-07T20:39:12.512Z,117.78
2022-12-07T20:41:58.644Z,120.28
2022-12-07T20:44:26.177Z,132.02
2022-12-07T20:47:06.035Z,117.35
2022-12-07T20:49:33.327Z,104.45
2022-12-07T20:52:01.007Z,105.05
2022-12-07T20:54:28.457Z,104.60
2022-12-07T20:56:55.356Z,109.85
2022-12-07T20:59:22.703Z,117.07
2022-12-07T21:01:49.641Z,108.70
2022-12-07T21:04:18.431Z,115.65
2022-12-07T21:06:45.776Z,143.75
2022-12-07T21:09:13.191Z,129.02
2022-12-07T21:11:53.237Z,114.88
2022-12-07T21:14:21.244Z,115.57
2022-12-07T21:16:48.464Z,125.63
2022-12-07T21:19:19.579Z,113.07
2022-12-07T21:24:14.238Z,112.88
2022-12-07T21:26:51.965Z,107.22
2022-12-07T21:29:29.757Z,120.53
2022-12-07T21:32:07.112Z,145.20
2022-12-07T21:34:34.345Z,198.73
2022-12-07T21:37:02.261Z,181.40
2022-12-07T21:39:29.420Z,168.60
2022-12-07T21:41:57.193Z,158.80
2022-12-07T21:44:50.206Z,137.05
2022-12-07T21:47:38.551Z,144.15
2022-12-07T21:50:32.233Z,128.85
2022-12-07T21:52:59.498Z,140.27
2022-12-07T21:55:26.511Z,120.78
2022-12-07T21:57:53.648Z,78.68
2022-12-07T22:00:24.875Z,87.47
2022-12-07T22:05:27.523Z,87.93
2022-12-07T22:07:59.419Z,77.07
2022-12-07T22:10:29.511Z,72.80
2022-12-07T22:13:06.293Z,65.97
2022-12-07T22:15:33.357Z,65.35
2022-12-07T22:18:00.445Z,67.65
2022-12-07T22:20:27.460Z,81.82
2022-12-07T22:22:55.368Z,78.55
2022-12-07T22:25:22.397Z,66.57
2022-12-07T22:27:49.434Z,53.78
2022-12-07T22:30:17.992Z,45.78
2022-12-07T22:32:49.261Z,45.45
2022-12-07T22:35:19.527Z,48.20
2022-12-07T22:37:46.514Z,43.40
2022-12-07T22:40:20.653Z,51.47
2022-12-07T22:42:51.064Z,48.20
2022-12-07T22:45:18.258Z,42.40
2022-12-07T22:47:45.346Z,40.67
2022-12-07T22:50:15.960Z,44.50
2022-12-07T22:52:43.180Z,41.47
2022-12-07T22:55:11.942Z,43.58
2022-12-07T22:58:04.366Z,42.65
2022-12-07T23:00:31.805Z,35.28
2022-12-07T23:02:58.792Z,32.50
2022-12-07T23:05:26.512Z,37.25
2022-12-07T23:07:53.770Z,37.28
2022-12-07T23:10:47.324Z,41.35
2022-12-07T23:13:39.990Z,31.45
2022-12-07T23:16:36.449Z,34.50
2022-12-07T23:19:03.938Z,41.17
2022-12-07T23:21:33.220Z,36.30
2022-12-07T23:24:04.702Z,37.10
2022-12-07T23:26:31.861Z,36.08
2022-12-07T23:28:59.388Z,46.50
2022-12-07T23:31:26.798Z,35.30
2022-12-07T23:33:54.027Z,68.05
2022-12-07T23:36:23.988Z,33.03
2022-12-07T23:38:52.376Z,57.72
2022-12-07T23:41:24.544Z,63.00
2022-12-07T23:44:21.502Z,61.50
2022-12-07T23:47:00.644Z,67.32
2022-12-07T23:49:28.792Z,71.28
2022-12-07T23:51:55.802Z,30.98
2022-12-07T23:54:22.881Z,43.42
2022-12-07T23:56:49.962Z,30.50
2022-12-07T23:59:17.122Z,50.13
